sensor_id;sensor_type;location;lat;lon;timestamp;temperature;humidity
22006;DHT22;11167;46.988;15.470;2024-03-25T00:01:38;9.80;67.20
22006;DHT22;11167;46.988;15.470;2024-03-25T00:03:39;9.70;67.10
22006;DHT22;11167;46.988;15.470;2024-03-25T00:05:41;9.70;67.20
22006;DHT22;11167;46.988;15.470;2024-03-25T00:07:42;9.70;67.30
22006;DHT22;11167;46.988;15.470;2024-03-25T00:09:44;9.70;67.30
22006;DHT22;11167;46.988;15.470;2024-03-25T00:11:45;9.60;67.10
22006;DHT22;11167;46.988;15.470;2024-03-25T00:13:46;9.60;67.30
22006;DHT22;11167;46.988;15.470;2024-03-25T00:15:47;9.60;67.30
22006;DHT22;11167;46.988;15.470;2024-03-25T00:17:48;9.60;67.30
22006;DHT22;11167;46.988;15.470;2024-03-25T00:19:50;9.60;67.30
22006;DHT22;11167;46.988;15.470;2024-03-25T00:21:54;9.60;67.20
22006;DHT22;11167;46.988;15.470;2024-03-25T00:23:59;9.60;67.30
22006;DHT22;11167;46.988;15.470;2024-03-25T00:26:01;9.50;67.20
22006;DHT22;11167;46.988;15.470;2024-03-25T00:28:03;9.50;67.20
22006;DHT22;11167;46.988;15.470;2024-03-25T00:30:06;9.50;67.20
22006;DHT22;11167;46.988;15.470;2024-03-25T00:32:08;9.40;67.20
22006;DHT22;11167;46.988;15.470;2024-03-25T00:34:09;9.40;67.20
22006;DHT22;11167;46.988;15.470;2024-03-25T00:36:10;9.40;67.30
22006;DHT22;11167;46.988;15.470;2024-03-25T00:38:12;9.40;67.30
22006;DHT22;11167;46.988;15.470;2024-03-25T00:40:13;9.40;67.40
22006;DHT22;11167;46.988;15.470;2024-03-25T00:42:14;9.30;66.50
22006;DHT22;11167;46.988;15.470;2024-03-25T00:44:15;9.30;67.30
22006;DHT22;11167;46.988;15.470;2024-03-25T00:46:17;9.30;67.30
22006;DHT22;11167;46.988;15.470;2024-03-25T00:48:18;9.30;67.40
22006;DHT22;11167;46.988;15.470;2024-03-25T00:50:19;9.30;67.40
22006;DHT22;11167;46.988;15.470;2024-03-25T00:52:20;9.20;67.40
22006;DHT22;11167;46.988;15.470;2024-03-25T00:54:22;9.20;67.80
22006;DHT22;11167;46.988;15.470;2024-03-25T00:56:24;9.20;67.60
22006;DHT22;11167;46.988;15.470;2024-03-25T00:58:25;9.20;67.40
22006;DHT22;11167;46.988;15.470;2024-03-25T01:00:29;9.20;67.40
22006;DHT22;11167;46.988;15.470;2024-03-25T01:02:31;9.10;67.50
22006;DHT22;11167;46.988;15.470;2024-03-25T01:04:33;9.10;67.60
22006;DHT22;11167;46.988;15.470;2024-03-25T01:06:34;9.10;67.60
22006;DHT22;11167;46.988;15.470;2024-03-25T01:08:35;9.10;67.60
22006;DHT22;11167;46.988;15.470;2024-03-25T01:10:36;9.10;67.70
22006;DHT22;11167;46.988;15.470;2024-03-25T01:12:37;9.10;67.70
22006;DHT22;11167;46.988;15.470;2024-03-25T01:14:38;9.00;67.60
22006;DHT22;11167;46.988;15.470;2024-03-25T01:16:40;9.00;67.60
22006;DHT22;11167;46.988;15.470;2024-03-25T01:18:42;9.00;67.80
22006;DHT22;11167;46.988;15.470;2024-03-25T01:20:43;9.00;67.70
22006;DHT22;11167;46.988;15.470;2024-03-25T01:22:45;9.00;67.80
22006;DHT22;11167;46.988;15.470;2024-03-25T01:24:46;8.90;67.80
22006;DHT22;11167;46.988;15.470;2024-03-25T01:26:48;8.90;67.80
22006;DHT22;11167;46.988;15.470;2024-03-25T01:28:50;8.90;67.90
22006;DHT22;11167;46.988;15.470;2024-03-25T01:30:51;8.90;67.80
22006;DHT22;11167;46.988;15.470;2024-03-25T01:32:52;8.90;68.00
22006;DHT22;11167;46.988;15.470;2024-03-25T01:34:53;8.90;68.00
22006;DHT22;11167;46.988;15.470;2024-03-25T01:36:54;8.80;67.90
22006;DHT22;11167;46.988;15.470;2024-03-25T01:38:56;8.80;67.90
22006;DHT22;11167;46.988;15.470;2024-03-25T01:41:08;8.80;67.90
22006;DHT22;11167;46.988;15.470;2024-03-25T01:43:10;8.80;68.00
22006;DHT22;11167;46.988;15.470;2024-03-25T01:45:11;8.80;68.00
22006;DHT22;11167;46.988;15.470;2024-03-25T01:47:13;8.80;68.10
22006;DHT22;11167;46.988;15.470;2024-03-25T01:49:15;8.70;68.10
22006;DHT22;11167;46.988;15.470;2024-03-25T01:51:17;8.70;68.10
22006;DHT22;11167;46.988;15.470;2024-03-25T01:53:20;8.70;68.20
22006;DHT22;11167;46.988;15.470;2024-03-25T01:55:22;8.70;68.20
22006;DHT22;11167;46.988;15.470;2024-03-25T01:57:25;8.70;68.20
22006;DHT22;11167;46.988;15.470;2024-03-25T01:59:28;8.70;68.20
22006;DHT22;11167;46.988;15.470;2024-03-25T02:01:29;8.60;68.10
22006;DHT22;11167;46.988;15.470;2024-03-25T02:03:32;8.60;68.10
22006;DHT22;11167;46.988;15.470;2024-03-25T02:05:34;8.60;68.20
22006;DHT22;11167;46.988;15.470;2024-03-25T02:07:36;8.60;68.20
22006;DHT22;11167;46.988;15.470;2024-03-25T02:09:38;8.60;68.20
22006;DHT22;11167;46.988;15.470;2024-03-25T02:11:41;8.60;68.30
22006;DHT22;11167;46.988;15.470;2024-03-25T02:13:43;8.50;68.40
22006;DHT22;11167;46.988;15.470;2024-03-25T02:15:44;8.50;68.30
22006;DHT22;11167;46.988;15.470;2024-03-25T02:17:45;8.50;68.40
22006;DHT22;11167;46.988;15.470;2024-03-25T02:19:46;8.50;68.40
22006;DHT22;11167;46.988;15.470;2024-03-25T02:21:47;8.50;68.40
22006;DHT22;11167;46.988;15.470;2024-03-25T02:23:50;8.50;68.40
22006;DHT22;11167;46.988;15.470;2024-03-25T02:25:53;8.50;68.40
22006;DHT22;11167;46.988;15.470;2024-03-25T02:27:55;8.40;68.30
22006;DHT22;11167;46.988;15.470;2024-03-25T02:30:05;8.40;68.30
22006;DHT22;11167;46.988;15.470;2024-03-25T02:32:04;8.40;68.30
22006;DHT22;11167;46.988;15.470;2024-03-25T02:34:07;8.40;68.30
22006;DHT22;11167;46.988;15.470;2024-03-25T02:36:08;8.40;68.30
22006;DHT22;11167;46.988;15.470;2024-03-25T02:38:09;8.30;68.30
22006;DHT22;11167;46.988;15.470;2024-03-25T02:40:10;8.30;69.00
22006;DHT22;11167;46.988;15.470;2024-03-25T02:42:12;8.30;69.20
22006;DHT22;11167;46.988;15.470;2024-03-25T02:44:14;8.30;68.40
22006;DHT22;11167;46.988;15.470;2024-03-25T02:46:16;8.30;68.40
22006;DHT22;11167;46.988;15.470;2024-03-25T02:48:17;8.30;68.30
22006;DHT22;11167;46.988;15.470;2024-03-25T02:50:18;8.20;68.40
22006;DHT22;11167;46.988;15.470;2024-03-25T02:52:19;8.20;68.40
22006;DHT22;11167;46.988;15.470;2024-03-25T02:54:21;8.20;68.40
22006;DHT22;11167;46.988;15.470;2024-03-25T02:56:23;8.20;68.40
22006;DHT22;11167;46.988;15.470;2024-03-25T02:58:24;8.20;68.40
22006;DHT22;11167;46.988;15.470;2024-03-25T03:00:25;8.20;68.40
22006;DHT22;11167;46.988;15.470;2024-03-25T03:02:26;8.10;68.40
22006;DHT22;11167;46.988;15.470;2024-03-25T03:04:27;8.10;68.40
22006;DHT22;11167;46.988;15.470;2024-03-25T03:06:29;8.10;68.60
22006;DHT22;11167;46.988;15.470;2024-03-25T03:08:30;8.10;68.60
22006;DHT22;11167;46.988;15.470;2024-03-25T03:10:31;8.10;68.50
22006;DHT22;11167;46.988;15.470;2024-03-25T03:12:32;8.10;68.60
22006;DHT22;11167;46.988;15.470;2024-03-25T03:14:33;8.10;68.60
22006;DHT22;11167;46.988;15.470;2024-03-25T03:16:34;8.00;68.60
22006;DHT22;11167;46.988;15.470;2024-03-25T03:18:37;8.00;68.60
22006;DHT22;11167;46.988;15.470;2024-03-25T03:20:38;8.00;68.60
22006;DHT22;11167;46.988;15.470;2024-03-25T03:22:39;8.00;68.50
22006;DHT22;11167;46.988;15.470;2024-03-25T03:24:40;8.00;68.60
22006;DHT22;11167;46.988;15.470;2024-03-25T03:26:42;8.00;67.90
22006;DHT22;11167;46.988;15.470;2024-03-25T03:28:43;8.00;68.80
22006;DHT22;11167;46.988;15.470;2024-03-25T03:30:44;7.90;68.70
22006;DHT22;11167;46.988;15.470;2024-03-25T03:32:45;7.90;68.80
22006;DHT22;11167;46.988;15.470;2024-03-25T03:34:46;7.90;69.00
22006;DHT22;11167;46.988;15.470;2024-03-25T03:36:47;7.90;69.00
22006;DHT22;11167;46.988;15.470;2024-03-25T03:38:52;7.90;69.00
22006;DHT22;11167;46.988;15.470;2024-03-25T03:41:02;7.90;69.00
22006;DHT22;11167;46.988;15.470;2024-03-25T03:43:03;7.90;69.10
22006;DHT22;11167;46.988;15.470;2024-03-25T03:45:06;7.80;69.10
22006;DHT22;11167;46.988;15.470;2024-03-25T03:47:08;7.80;69.90
22006;DHT22;11167;46.988;15.470;2024-03-25T03:49:09;7.80;69.10
22006;DHT22;11167;46.988;15.470;2024-03-25T03:51:10;7.80;69.30
22006;DHT22;11167;46.988;15.470;2024-03-25T03:53:11;7.80;69.20
22006;DHT22;11167;46.988;15.470;2024-03-25T03:55:13;7.80;69.20
22006;DHT22;11167;46.988;15.470;2024-03-25T03:57:14;7.80;69.10
22006;DHT22;11167;46.988;15.470;2024-03-25T03:59:15;7.80;69.10
22006;DHT22;11167;46.988;15.470;2024-03-25T04:01:18;7.80;69.30
22006;DHT22;11167;46.988;15.470;2024-03-25T04:03:21;7.70;69.20
22006;DHT22;11167;46.988;15.470;2024-03-25T04:05:22;7.70;69.20
22006;DHT22;11167;46.988;15.470;2024-03-25T04:07:23;7.70;69.20
22006;DHT22;11167;46.988;15.470;2024-03-25T04:09:27;7.70;69.30
22006;DHT22;11167;46.988;15.470;2024-03-25T04:11:30;7.70;69.30
22006;DHT22;11167;46.988;15.470;2024-03-25T04:13:31;7.70;69.30
22006;DHT22;11167;46.988;15.470;2024-03-25T04:15:33;7.70;69.40
22006;DHT22;11167;46.988;15.470;2024-03-25T04:17:34;7.70;69.40
22006;DHT22;11167;46.988;15.470;2024-03-25T04:19:36;7.60;69.30
22006;DHT22;11167;46.988;15.470;2024-03-25T04:21:37;7.60;69.40
22006;DHT22;11167;46.988;15.470;2024-03-25T04:23:38;7.60;70.10
22006;DHT22;11167;46.988;15.470;2024-03-25T04:25:41;7.60;69.40
22006;DHT22;11167;46.988;15.470;2024-03-25T04:27:42;7.60;69.30
22006;DHT22;11167;46.988;15.470;2024-03-25T04:29:44;7.60;69.40
22006;DHT22;11167;46.988;15.470;2024-03-25T04:31:45;7.60;68.60
22006;DHT22;11167;46.988;15.470;2024-03-25T04:33:47;7.60;69.40
22006;DHT22;11167;46.988;15.470;2024-03-25T04:35:48;7.50;69.50
22006;DHT22;11167;46.988;15.470;2024-03-25T04:37:49;7.50;69.40
22006;DHT22;11167;46.988;15.470;2024-03-25T04:39:50;7.50;69.50
22006;DHT22;11167;46.988;15.470;2024-03-25T04:41:51;7.50;69.50
22006;DHT22;11167;46.988;15.470;2024-03-25T04:43:53;7.50;69.50
22006;DHT22;11167;46.988;15.470;2024-03-25T04:45:54;7.50;69.70
22006;DHT22;11167;46.988;15.470;2024-03-25T04:47:55;7.50;69.70
22006;DHT22;11167;46.988;15.470;2024-03-25T04:49:56;7.40;69.70
22006;DHT22;11167;46.988;15.470;2024-03-25T04:51:57;7.40;69.80
22006;DHT22;11167;46.988;15.470;2024-03-25T04:53:59;7.40;70.00
22006;DHT22;11167;46.988;15.470;2024-03-25T04:56:00;7.40;69.70
22006;DHT22;11167;46.988;15.470;2024-03-25T04:58:01;7.40;69.90
22006;DHT22;11167;46.988;15.470;2024-03-25T05:00:03;7.40;69.90
22006;DHT22;11167;46.988;15.470;2024-03-25T05:02:04;7.40;69.90
22006;DHT22;11167;46.988;15.470;2024-03-25T05:04:06;7.40;69.90
22006;DHT22;11167;46.988;15.470;2024-03-25T05:06:10;7.40;69.90
22006;DHT22;11167;46.988;15.470;2024-03-25T05:08:12;7.40;69.90
22006;DHT22;11167;46.988;15.470;2024-03-25T05:10:15;7.40;69.90
22006;DHT22;11167;46.988;15.470;2024-03-25T05:12:16;7.30;69.90
22006;DHT22;11167;46.988;15.470;2024-03-25T05:14:17;7.40;70.00
22006;DHT22;11167;46.988;15.470;2024-03-25T05:16:18;7.30;70.00
22006;DHT22;11167;46.988;15.470;2024-03-25T05:18:19;7.30;70.00
22006;DHT22;11167;46.988;15.470;2024-03-25T05:20:20;7.30;70.00
22006;DHT22;11167;46.988;15.470;2024-03-25T05:22:22;7.30;70.10
22006;DHT22;11167;46.988;15.470;2024-03-25T05:24:23;7.30;70.00
22006;DHT22;11167;46.988;15.470;2024-03-25T05:26:24;7.30;70.20
22006;DHT22;11167;46.988;15.470;2024-03-25T05:28:25;7.30;70.20
22006;DHT22;11167;46.988;15.470;2024-03-25T05:30:26;7.30;70.20
22006;DHT22;11167;46.988;15.470;2024-03-25T05:32:28;7.30;70.20
22006;DHT22;11167;46.988;15.470;2024-03-25T05:34:29;7.30;70.10
22006;DHT22;11167;46.988;15.470;2024-03-25T05:36:31;7.30;70.20
22006;DHT22;11167;46.988;15.470;2024-03-25T05:38:32;7.20;70.10
22006;DHT22;11167;46.988;15.470;2024-03-25T05:40:33;7.20;70.20
22006;DHT22;11167;46.988;15.470;2024-03-25T05:42:35;7.20;70.10
22006;DHT22;11167;46.988;15.470;2024-03-25T05:44:36;7.20;71.20
22006;DHT22;11167;46.988;15.470;2024-03-25T05:46:38;7.20;70.20
22006;DHT22;11167;46.988;15.470;2024-03-25T05:48:39;7.20;70.10
22006;DHT22;11167;46.988;15.470;2024-03-25T05:50:42;7.20;70.20
22006;DHT22;11167;46.988;15.470;2024-03-25T05:52:43;7.20;70.20
22006;DHT22;11167;46.988;15.470;2024-03-25T05:54:45;7.20;70.20
22006;DHT22;11167;46.988;15.470;2024-03-25T05:56:46;7.20;70.20
22006;DHT22;11167;46.988;15.470;2024-03-25T05:58:48;7.20;70.20
22006;DHT22;11167;46.988;15.470;2024-03-25T06:00:49;7.20;70.30
22006;DHT22;11167;46.988;15.470;2024-03-25T06:02:52;7.20;70.30
22006;DHT22;11167;46.988;15.470;2024-03-25T06:04:54;7.10;70.90
22006;DHT22;11167;46.988;15.470;2024-03-25T06:06:57;7.10;71.40
22006;DHT22;11167;46.988;15.470;2024-03-25T06:08:58;7.10;70.60
22006;DHT22;11167;46.988;15.470;2024-03-25T06:11:03;7.10;70.40
22006;DHT22;11167;46.988;15.470;2024-03-25T06:13:04;7.10;70.30
22006;DHT22;11167;46.988;15.470;2024-03-25T06:15:06;7.10;70.50
22006;DHT22;11167;46.988;15.470;2024-03-25T06:17:08;7.10;70.50
22006;DHT22;11167;46.988;15.470;2024-03-25T06:19:10;7.10;70.30
22006;DHT22;11167;46.988;15.470;2024-03-25T06:21:12;7.10;70.40
22006;DHT22;11167;46.988;15.470;2024-03-25T06:23:26;7.10;70.40
22006;DHT22;11167;46.988;15.470;2024-03-25T06:25:24;7.10;70.40
22006;DHT22;11167;46.988;15.470;2024-03-25T06:27:25;7.10;70.30
22006;DHT22;11167;46.988;15.470;2024-03-25T06:29:26;7.10;70.60
22006;DHT22;11167;46.988;15.470;2024-03-25T06:31:28;7.10;70.60
22006;DHT22;11167;46.988;15.470;2024-03-25T06:33:48;7.10;70.50
22006;DHT22;11167;46.988;15.470;2024-03-25T06:36:08;7.10;70.90
22006;DHT22;11167;46.988;15.470;2024-03-25T06:38:10;7.00;70.40
22006;DHT22;11167;46.988;15.470;2024-03-25T06:40:11;7.00;70.40
22006;DHT22;11167;46.988;15.470;2024-03-25T06:42:13;7.00;70.40
22006;DHT22;11167;46.988;15.470;2024-03-25T06:44:14;7.00;70.40
22006;DHT22;11167;46.988;15.470;2024-03-25T06:46:15;7.00;70.40
22006;DHT22;11167;46.988;15.470;2024-03-25T06:48:16;7.00;70.40
22006;DHT22;11167;46.988;15.470;2024-03-25T06:50:18;7.00;70.50
22006;DHT22;11167;46.988;15.470;2024-03-25T06:52:19;7.00;70.40
22006;DHT22;11167;46.988;15.470;2024-03-25T06:54:20;7.00;70.60
22006;DHT22;11167;46.988;15.470;2024-03-25T06:56:21;7.00;70.50
22006;DHT22;11167;46.988;15.470;2024-03-25T06:58:24;7.00;70.60
22006;DHT22;11167;46.988;15.470;2024-03-25T07:00:25;7.00;70.60
22006;DHT22;11167;46.988;15.470;2024-03-25T07:02:26;7.00;70.40
22006;DHT22;11167;46.988;15.470;2024-03-25T07:04:27;7.00;70.60
22006;DHT22;11167;46.988;15.470;2024-03-25T07:06:29;7.00;70.60
22006;DHT22;11167;46.988;15.470;2024-03-25T07:08:31;7.00;70.60
22006;DHT22;11167;46.988;15.470;2024-03-25T07:10:33;7.00;71.30
22006;DHT22;11167;46.988;15.470;2024-03-25T07:12:34;7.00;70.50
22006;DHT22;11167;46.988;15.470;2024-03-25T07:14:35;7.00;70.50
22006;DHT22;11167;46.988;15.470;2024-03-25T07:16:36;7.00;70.60
22006;DHT22;11167;46.988;15.470;2024-03-25T07:18:37;7.00;70.50
22006;DHT22;11167;46.988;15.470;2024-03-25T07:20:40;7.00;70.60
22006;DHT22;11167;46.988;15.470;2024-03-25T07:22:41;7.00;70.60
22006;DHT22;11167;46.988;15.470;2024-03-25T07:24:43;7.00;70.60
22006;DHT22;11167;46.988;15.470;2024-03-25T07:26:44;7.00;70.60
22006;DHT22;11167;46.988;15.470;2024-03-25T07:28:45;7.00;70.60
22006;DHT22;11167;46.988;15.470;2024-03-25T07:30:46;7.00;71.40
22006;DHT22;11167;46.988;15.470;2024-03-25T07:32:50;7.00;70.60
22006;DHT22;11167;46.988;15.470;2024-03-25T07:34:51;7.00;70.50
22006;DHT22;11167;46.988;15.470;2024-03-25T07:36:52;7.00;70.60
22006;DHT22;11167;46.988;15.470;2024-03-25T07:38:53;7.00;70.60
22006;DHT22;11167;46.988;15.470;2024-03-25T07:40:55;7.00;70.60
22006;DHT22;11167;46.988;15.470;2024-03-25T07:42:56;7.00;70.60
22006;DHT22;11167;46.988;15.470;2024-03-25T07:44:57;7.00;70.60
22006;DHT22;11167;46.988;15.470;2024-03-25T07:46:59;7.00;70.60
22006;DHT22;11167;46.988;15.470;2024-03-25T07:49:00;7.00;70.40
22006;DHT22;11167;46.988;15.470;2024-03-25T07:51:01;7.00;69.90
22006;DHT22;11167;46.988;15.470;2024-03-25T07:53:03;7.00;70.60
22006;DHT22;11167;46.988;15.470;2024-03-25T07:55:04;7.00;70.50
22006;DHT22;11167;46.988;15.470;2024-03-25T07:57:06;7.00;70.40
22006;DHT22;11167;46.988;15.470;2024-03-25T07:59:07;7.00;70.50
22006;DHT22;11167;46.988;15.470;2024-03-25T08:01:08;7.00;70.40
22006;DHT22;11167;46.988;15.470;2024-03-25T08:03:09;7.00;71.40
22006;DHT22;11167;46.988;15.470;2024-03-25T08:05:11;7.00;70.60
22006;DHT22;11167;46.988;15.470;2024-03-25T08:07:12;7.00;70.50
22006;DHT22;11167;46.988;15.470;2024-03-25T08:09:13;7.00;70.60
22006;DHT22;11167;46.988;15.470;2024-03-25T08:11:16;7.00;70.50
22006;DHT22;11167;46.988;15.470;2024-03-25T08:13:17;7.00;70.40
22006;DHT22;11167;46.988;15.470;2024-03-25T08:15:18;7.00;70.40
22006;DHT22;11167;46.988;15.470;2024-03-25T08:17:20;7.00;70.60
22006;DHT22;11167;46.988;15.470;2024-03-25T08:19:21;7.00;70.60
22006;DHT22;11167;46.988;15.470;2024-03-25T08:21:22;7.00;70.60
22006;DHT22;11167;46.988;15.470;2024-03-25T08:23:24;7.00;70.40
22006;DHT22;11167;46.988;15.470;2024-03-25T08:25:25;7.00;70.40
22006;DHT22;11167;46.988;15.470;2024-03-25T08:27:27;7.00;70.40
22006;DHT22;11167;46.988;15.470;2024-03-25T08:29:29;7.00;70.60
22006;DHT22;11167;46.988;15.470;2024-03-25T08:31:30;7.00;70.60
22006;DHT22;11167;46.988;15.470;2024-03-25T08:33:31;7.00;70.60
22006;DHT22;11167;46.988;15.470;2024-03-25T08:35:32;7.00;70.50
22006;DHT22;11167;46.988;15.470;2024-03-25T08:37:33;7.00;70.50
22006;DHT22;11167;46.988;15.470;2024-03-25T08:39:35;7.00;70.50
22006;DHT22;11167;46.988;15.470;2024-03-25T08:41:36;7.00;70.60
22006;DHT22;11167;46.988;15.470;2024-03-25T08:43:37;7.00;70.60
22006;DHT22;11167;46.988;15.470;2024-03-25T08:45:38;7.00;70.60
22006;DHT22;11167;46.988;15.470;2024-03-25T08:47:39;7.10;70.80
22006;DHT22;11167;46.988;15.470;2024-03-25T08:49:41;7.10;70.70
22006;DHT22;11167;46.988;15.470;2024-03-25T08:51:43;7.10;70.80
22006;DHT22;11167;46.988;15.470;2024-03-25T08:53:44;7.10;70.90
22006;DHT22;11167;46.988;15.470;2024-03-25T08:55:46;7.10;70.90
22006;DHT22;11167;46.988;15.470;2024-03-25T08:57:47;7.10;71.00
22006;DHT22;11167;46.988;15.470;2024-03-25T08:59:48;7.10;71.10
22006;DHT22;11167;46.988;15.470;2024-03-25T09:01:49;7.10;71.10
22006;DHT22;11167;46.988;15.470;2024-03-25T09:03:50;7.20;71.40
22006;DHT22;11167;46.988;15.470;2024-03-25T09:05:51;7.20;71.30
22006;DHT22;11167;46.988;15.470;2024-03-25T09:07:53;7.20;71.30
22006;DHT22;11167;46.988;15.470;2024-03-25T09:09:54;7.20;71.40
22006;DHT22;11167;46.988;15.470;2024-03-25T09:12:14;7.20;71.30
22006;DHT22;11167;46.988;15.470;2024-03-25T09:14:15;7.20;71.10
22006;DHT22;11167;46.988;15.470;2024-03-25T09:16:16;7.30;71.10
22006;DHT22;11167;46.988;15.470;2024-03-25T09:18:19;7.30;71.20
22006;DHT22;11167;46.988;15.470;2024-03-25T09:20:20;7.30;71.10
22006;DHT22;11167;46.988;15.470;2024-03-25T09:22:21;7.30;71.10
22006;DHT22;11167;46.988;15.470;2024-03-25T09:24:22;7.30;71.20
22006;DHT22;11167;46.988;15.470;2024-03-25T09:26:24;7.30;71.20
22006;DHT22;11167;46.988;15.470;2024-03-25T09:28:25;7.30;71.20
22006;DHT22;11167;46.988;15.470;2024-03-25T09:30:26;7.40;71.10
22006;DHT22;11167;46.988;15.470;2024-03-25T09:32:27;7.40;71.10
22006;DHT22;11167;46.988;15.470;2024-03-25T09:34:28;7.40;71.00
22006;DHT22;11167;46.988;15.470;2024-03-25T09:36:30;7.40;71.10
22006;DHT22;11167;46.988;15.470;2024-03-25T09:38:31;7.50;71.10
22006;DHT22;11167;46.988;15.470;2024-03-25T09:40:35;7.50;71.00
22006;DHT22;11167;46.988;15.470;2024-03-25T09:42:49;7.50;70.90
22006;DHT22;11167;46.988;15.470;2024-03-25T09:44:50;7.50;70.90
22006;DHT22;11167;46.988;15.470;2024-03-25T09:46:51;7.50;70.80
22006;DHT22;11167;46.988;15.470;2024-03-25T09:48:53;7.50;70.60
22006;DHT22;11167;46.988;15.470;2024-03-25T09:50:55;7.60;70.70
22006;DHT22;11167;46.988;15.470;2024-03-25T09:52:58;7.60;70.20
22006;DHT22;11167;46.988;15.470;2024-03-25T09:54:59;7.70;70.20
22006;DHT22;11167;46.988;15.470;2024-03-25T09:57:02;7.70;70.10
22006;DHT22;11167;46.988;15.470;2024-03-25T09:59:05;7.70;70.00
22006;DHT22;11167;46.988;15.470;2024-03-25T10:01:07;7.70;69.90
22006;DHT22;11167;46.988;15.470;2024-03-25T10:03:09;7.70;69.90
22006;DHT22;11167;46.988;15.470;2024-03-25T10:05:10;7.80;69.90
22006;DHT22;11167;46.988;15.470;2024-03-25T10:07:16;7.80;70.00
22006;DHT22;11167;46.988;15.470;2024-03-25T10:09:19;7.80;69.90
22006;DHT22;11167;46.988;15.470;2024-03-25T10:11:21;7.90;69.80
22006;DHT22;11167;46.988;15.470;2024-03-25T10:13:23;7.90;69.80
22006;DHT22;11167;46.988;15.470;2024-03-25T10:15:24;7.90;69.70
22006;DHT22;11167;46.988;15.470;2024-03-25T10:17:25;8.00;69.80
22006;DHT22;11167;46.988;15.470;2024-03-25T10:19:26;8.00;70.00
22006;DHT22;11167;46.988;15.470;2024-03-25T10:21:27;8.00;70.00
22006;DHT22;11167;46.988;15.470;2024-03-25T10:23:29;8.10;70.00
22006;DHT22;11167;46.988;15.470;2024-03-25T10:25:31;8.10;70.00
22006;DHT22;11167;46.988;15.470;2024-03-25T10:27:32;8.20;70.00
22006;DHT22;11167;46.988;15.470;2024-03-25T10:29:33;8.20;70.00
22006;DHT22;11167;46.988;15.470;2024-03-25T10:31:34;8.20;70.00
22006;DHT22;11167;46.988;15.470;2024-03-25T10:33:35;8.30;70.10
22006;DHT22;11167;46.988;15.470;2024-03-25T10:35:38;8.30;70.10
22006;DHT22;11167;46.988;15.470;2024-03-25T10:37:39;8.40;70.10
22006;DHT22;11167;46.988;15.470;2024-03-25T10:39:50;8.40;70.00
22006;DHT22;11167;46.988;15.470;2024-03-25T10:41:49;8.50;70.00
22006;DHT22;11167;46.988;15.470;2024-03-25T10:43:52;8.50;70.00
22006;DHT22;11167;46.988;15.470;2024-03-25T10:45:55;8.60;70.00
22006;DHT22;11167;46.988;15.470;2024-03-25T10:47:58;8.60;69.90
22006;DHT22;11167;46.988;15.470;2024-03-25T10:50:04;8.70;69.70
22006;DHT22;11167;46.988;15.470;2024-03-25T10:52:06;8.70;69.70
22006;DHT22;11167;46.988;15.470;2024-03-25T10:54:08;8.70;69.70
22006;DHT22;11167;46.988;15.470;2024-03-25T10:56:10;8.80;69.70
22006;DHT22;11167;46.988;15.470;2024-03-25T10:58:15;8.80;69.70
22006;DHT22;11167;46.988;15.470;2024-03-25T11:00:17;8.90;69.70
22006;DHT22;11167;46.988;15.470;2024-03-25T11:02:20;8.90;69.70
22006;DHT22;11167;46.988;15.470;2024-03-25T11:04:23;9.00;69.80
22006;DHT22;11167;46.988;15.470;2024-03-25T11:06:25;9.00;69.90
22006;DHT22;11167;46.988;15.470;2024-03-25T11:08:33;9.10;69.90
22006;DHT22;11167;46.988;15.470;2024-03-25T11:10:39;9.10;69.90
22006;DHT22;11167;46.988;15.470;2024-03-25T11:12:41;9.20;70.00
22006;DHT22;11167;46.988;15.470;2024-03-25T11:14:44;9.30;69.90
22006;DHT22;11167;46.988;15.470;2024-03-25T11:16:55;9.30;69.90
22006;DHT22;11167;46.988;15.470;2024-03-25T11:19:04;9.40;69.90
22006;DHT22;11167;46.988;15.470;2024-03-25T11:21:07;9.40;69.80
22006;DHT22;11167;46.988;15.470;2024-03-25T11:23:10;9.50;69.90
22006;DHT22;11167;46.988;15.470;2024-03-25T11:25:13;9.50;69.90
22006;DHT22;11167;46.988;15.470;2024-03-25T11:27:14;9.60;69.80
22006;DHT22;11167;46.988;15.470;2024-03-25T11:29:15;9.70;69.90
22006;DHT22;11167;46.988;15.470;2024-03-25T11:31:20;9.70;70.00
22006;DHT22;11167;46.988;15.470;2024-03-25T11:33:22;9.80;69.40
22006;DHT22;11167;46.988;15.470;2024-03-25T11:35:23;9.80;69.80
22006;DHT22;11167;46.988;15.470;2024-03-25T11:37:25;9.90;69.90
22006;DHT22;11167;46.988;15.470;2024-03-25T11:39:26;9.90;69.90
22006;DHT22;11167;46.988;15.470;2024-03-25T11:41:30;10.00;70.00
22006;DHT22;11167;46.988;15.470;2024-03-25T11:43:32;10.10;69.90
22006;DHT22;11167;46.988;15.470;2024-03-25T11:45:33;10.10;69.80
22006;DHT22;11167;46.988;15.470;2024-03-25T11:47:35;10.20;69.80
22006;DHT22;11167;46.988;15.470;2024-03-25T11:49:39;10.30;69.90
22006;DHT22;11167;46.988;15.470;2024-03-25T11:51:42;10.30;69.80
22006;DHT22;11167;46.988;15.470;2024-03-25T11:53:43;10.40;69.70
22006;DHT22;11167;46.988;15.470;2024-03-25T11:55:49;10.40;69.70
22006;DHT22;11167;46.988;15.470;2024-03-25T11:57:57;10.50;69.70
22006;DHT22;11167;46.988;15.470;2024-03-25T11:59:58;10.50;69.70
22006;DHT22;11167;46.988;15.470;2024-03-25T12:01:59;10.60;69.70
22006;DHT22;11167;46.988;15.470;2024-03-25T12:04:18;10.70;69.70
22006;DHT22;11167;46.988;15.470;2024-03-25T12:06:19;10.70;69.70
22006;DHT22;11167;46.988;15.470;2024-03-25T12:08:20;10.80;69.60
22006;DHT22;11167;46.988;15.470;2024-03-25T12:10:26;10.80;69.50
22006;DHT22;11167;46.988;15.470;2024-03-25T12:12:45;10.90;69.50
22006;DHT22;11167;46.988;15.470;2024-03-25T12:14:46;11.00;69.50
22006;DHT22;11167;46.988;15.470;2024-03-25T12:16:48;11.00;69.50
22006;DHT22;11167;46.988;15.470;2024-03-25T12:18:51;11.10;69.60
22006;DHT22;11167;46.988;15.470;2024-03-25T12:20:56;11.20;69.50
22006;DHT22;11167;46.988;15.470;2024-03-25T12:22:58;11.20;69.50
22006;DHT22;11167;46.988;15.470;2024-03-25T12:25:00;11.30;69.40
22006;DHT22;11167;46.988;15.470;2024-03-25T12:27:02;11.30;70.00
22006;DHT22;11167;46.988;15.470;2024-03-25T12:29:05;11.40;69.40
22006;DHT22;11167;46.988;15.470;2024-03-25T12:31:10;11.50;69.40
22006;DHT22;11167;46.988;15.470;2024-03-25T12:33:15;11.50;69.40
22006;DHT22;11167;46.988;15.470;2024-03-25T12:35:16;11.60;69.40
22006;DHT22;11167;46.988;15.470;2024-03-25T12:37:19;11.60;68.30
22006;DHT22;11167;46.988;15.470;2024-03-25T12:39:21;11.70;69.20
22006;DHT22;11167;46.988;15.470;2024-03-25T12:41:22;11.80;69.20
22006;DHT22;11167;46.988;15.470;2024-03-25T12:43:24;11.80;69.40
22006;DHT22;11167;46.988;15.470;2024-03-25T12:45:27;11.90;69.30
22006;DHT22;11167;46.988;15.470;2024-03-25T12:47:30;11.90;69.40
22006;DHT22;11167;46.988;15.470;2024-03-25T12:49:32;12.00;69.30
22006;DHT22;11167;46.988;15.470;2024-03-25T12:51:33;12.10;69.30